sensor_id;sensor_type;location;lat;lon;timestamp;pressure;altitude;pressure_sealevel;temperature;humidity
12793;BME280;6460;42.684;23.260;2023-02-11T00:00:39;96237.25;;;-1.92;67.76
12793;BME280;6460;42.684;23.260;2023-02-11T00:03:06;96236.06;;;-1.84;67.95
12793;BME280;6460;42.684;23.260;2023-02-11T00:05:33;96243.81;;;-1.78;67.78
12793;BME280;6460;42.684;23.260;2023-02-11T00:08:00;96238.88;;;-1.74;67.71
12793;BME280;6460;42.684;23.260;2023-02-11T00:10:27;96240.13;;;-1.93;68.24
12793;BME280;6460;42.684;23.260;2023-02-11T00:12:54;96243.50;;;-1.81;67.60
12793;BME280;6460;42.684;23.260;2023-02-11T00:15:21;96248.09;;;-2.17;66.88
12793;BME280;6460;42.684;23.260;2023-02-11T00:17:50;96245.47;;;-2.17;67.22
12793;BME280;6460;42.684;23.260;2023-02-11T00:20:17;96254.69;;;-2.02;67.62
12793;BME280;6460;42.684;23.260;2023-02-11T00:22:44;96241.44;;;-2.07;66.92
12793;BME280;6460;42.684;23.260;2023-02-11T00:25:11;96250.97;;;-2.18;66.96
12793;BME280;6460;42.684;23.260;2023-02-11T00:27:38;96246.06;;;-2.15;68.05
12793;BME280;6460;42.684;23.260;2023-02-11T00:30:07;96251.13;;;-2.25;67.87
12793;BME280;6460;42.684;23.260;2023-02-11T00:32:34;96256.50;;;-2.31;67.13
12793;BME280;6460;42.684;23.260;2023-02-11T00:35:03;96246.34;;;-2.39;67.80
12793;BME280;6460;42.684;23.260;2023-02-11T00:37:30;96243.00;;;-2.35;68.07
12793;BME280;6460;42.684;23.260;2023-02-11T00:40:00;96244.97;;;-2.42;68.60
12793;BME280;6460;42.684;23.260;2023-02-11T00:42:27;96243.25;;;-2.36;68.40
12793;BME280;6460;42.684;23.260;2023-02-11T00:44:54;96245.00;;;-2.53;68.76
12793;BME280;6460;42.684;23.260;2023-02-11T00:47:21;96239.50;;;-2.52;68.68
12793;BME280;6460;42.684;23.260;2023-02-11T00:49:48;96230.72;;;-2.18;68.20
12793;BME280;6460;42.684;23.260;2023-02-11T00:52:16;96241.22;;;-2.46;68.32
12793;BME280;6460;42.684;23.260;2023-02-11T00:54:43;96241.19;;;-2.34;68.74
12793;BME280;6460;42.684;23.260;2023-02-11T00:57:10;96237.66;;;-2.51;68.48
12793;BME280;6460;42.684;23.260;2023-02-11T00:59:37;96234.16;;;-2.69;69.00
12793;BME280;6460;42.684;23.260;2023-02-11T01:02:04;96245.03;;;-2.65;68.87
12793;BME280;6460;42.684;23.260;2023-02-11T01:04:31;96231.13;;;-2.37;67.72
12793;BME280;6460;42.684;23.260;2023-02-11T01:06:58;96230.78;;;-2.41;67.12
12793;BME280;6460;42.684;23.260;2023-02-11T01:09:26;96229.31;;;-2.48;66.94
12793;BME280;6460;42.684;23.260;2023-02-11T01:11:53;96227.94;;;-2.51;67.44
12793;BME280;6460;42.684;23.260;2023-02-11T01:14:20;96235.16;;;-2.46;68.17
12793;BME280;6460;42.684;23.260;2023-02-11T01:16:47;96220.91;;;-2.62;68.76
12793;BME280;6460;42.684;23.260;2023-02-11T01:19:13;96224.69;;;-2.81;69.22
12793;BME280;6460;42.684;23.260;2023-02-11T01:21:40;96231.13;;;-2.49;68.35
12793;BME280;6460;42.684;23.260;2023-02-11T01:24:08;96228.88;;;-2.57;68.31
12793;BME280;6460;42.684;23.260;2023-02-11T01:26:36;96218.91;;;-2.55;68.59
12793;BME280;6460;42.684;23.260;2023-02-11T01:29:03;96224.97;;;-2.54;69.14
12793;BME280;6460;42.684;23.260;2023-02-11T01:31:30;96219.13;;;-2.45;68.28
12793;BME280;6460;42.684;23.260;2023-02-11T01:33:57;96221.16;;;-2.75;68.52
12793;BME280;6460;42.684;23.260;2023-02-11T01:36:24;96214.31;;;-2.48;67.86
12793;BME280;6460;42.684;23.260;2023-02-11T01:38:51;96213.47;;;-2.65;68.13
12793;BME280;6460;42.684;23.260;2023-02-11T01:41:18;96221.53;;;-2.55;68.14
12793;BME280;6460;42.684;23.260;2023-02-11T01:43:48;96213.78;;;-2.61;68.28
12793;BME280;6460;42.684;23.260;2023-02-11T01:46:24;96213.94;;;-2.91;68.80
12793;BME280;6460;42.684;23.260;2023-02-11T01:48:55;96208.31;;;-2.72;68.71
12793;BME280;6460;42.684;23.260;2023-02-11T01:51:25;96208.56;;;-2.85;68.83
12793;BME280;6460;42.684;23.260;2023-02-11T01:53:54;96212.56;;;-2.82;69.41
12793;BME280;6460;42.684;23.260;2023-02-11T01:56:43;96208.28;;;-2.60;68.85
12793;BME280;6460;42.684;23.260;2023-02-11T01:59:35;96211.63;;;-2.76;68.43
12793;BME280;6460;42.684;23.260;2023-02-11T02:02:07;96207.88;;;-2.80;68.71
12793;BME280;6460;42.684;23.260;2023-02-11T02:04:40;96206.88;;;-3.37;70.23
12793;BME280;6460;42.684;23.260;2023-02-11T02:07:11;96211.22;;;-3.19;70.27
12793;BME280;6460;42.684;23.260;2023-02-11T02:09:43;96198.06;;;-2.96;69.59
12793;BME280;6460;42.684;23.260;2023-02-11T02:12:12;96218.75;;;-3.11;69.72
12793;BME280;6460;42.684;23.260;2023-02-11T02:14:41;96217.84;;;-2.94;69.60
12793;BME280;6460;42.684;23.260;2023-02-11T02:17:17;96206.44;;;-3.23;69.68
12793;BME280;6460;42.684;23.260;2023-02-11T02:20:08;96210.44;;;-3.20;69.94
12793;BME280;6460;42.684;23.260;2023-02-11T02:25:54;96215.47;;;-3.07;69.62
12793;BME280;6460;42.684;23.260;2023-02-11T02:28:43;96209.63;;;-3.21;69.43
12793;BME280;6460;42.684;23.260;2023-02-11T02:31:30;96204.59;;;-3.10;69.00
12793;BME280;6460;42.684;23.260;2023-02-11T02:34:05;96205.28;;;-3.27;69.71
12793;BME280;6460;42.684;23.260;2023-02-11T02:36:36;96205.75;;;-3.30;69.04
12793;BME280;6460;42.684;23.260;2023-02-11T02:39:10;96211.47;;;-3.33;69.32
12793;BME280;6460;42.684;23.260;2023-02-11T02:41:41;96208.59;;;-3.31;69.21
12793;BME280;6460;42.684;23.260;2023-02-11T02:44:08;96207.69;;;-3.48;69.48
12793;BME280;6460;42.684;23.260;2023-02-11T02:46:36;96198.63;;;-3.41;69.67
12793;BME280;6460;42.684;23.260;2023-02-11T02:49:08;96195.31;;;-3.25;69.45
12793;BME280;6460;42.684;23.260;2023-02-11T02:52:02;96200.03;;;-3.27;69.39
12793;BME280;6460;42.684;23.260;2023-02-11T02:54:47;96202.28;;;-3.18;69.15
12793;BME280;6460;42.684;23.260;2023-02-11T02:57:29;96206.41;;;-3.34;69.12
12793;BME280;6460;42.684;23.260;2023-02-11T03:00:07;96207.66;;;-3.25;68.69
12793;BME280;6460;42.684;23.260;2023-02-11T03:02:43;96212.47;;;-3.22;69.26
12793;BME280;6460;42.684;23.260;2023-02-11T03:05:17;96205.03;;;-3.37;69.21
12793;BME280;6460;42.684;23.260;2023-02-11T03:07:54;96206.66;;;-3.36;68.92
12793;BME280;6460;42.684;23.260;2023-02-11T03:10:27;96201.84;;;-3.39;68.87
12793;BME280;6460;42.684;23.260;2023-02-11T03:12:55;96203.06;;;-3.76;69.85
12793;BME280;6460;42.684;23.260;2023-02-11T03:15:25;96209.81;;;-3.80;70.34
12793;BME280;6460;42.684;23.260;2023-02-11T03:17:55;96207.53;;;-3.65;70.47
12793;BME280;6460;42.684;23.260;2023-02-11T03:20:27;96208.13;;;-3.28;69.13
12793;BME280;6460;42.684;23.260;2023-02-11T03:23:01;96200.34;;;-3.58;69.40
12793;BME280;6460;42.684;23.260;2023-02-11T03:25:33;96203.44;;;-3.61;70.26
12793;BME280;6460;42.684;23.260;2023-02-11T03:28:08;96201.41;;;-3.36;69.86
12793;BME280;6460;42.684;23.260;2023-02-11T03:30:42;96202.63;;;-3.38;69.78
12793;BME280;6460;42.684;23.260;2023-02-11T03:33:15;96203.44;;;-3.38;69.57
12793;BME280;6460;42.684;23.260;2023-02-11T03:35:50;96205.59;;;-3.00;68.10
12793;BME280;6460;42.684;23.260;2023-02-11T03:38:21;96193.75;;;-3.26;68.00
12793;BME280;6460;42.684;23.260;2023-02-11T03:40:52;96204.13;;;-3.07;68.24
12793;BME280;6460;42.684;23.260;2023-02-11T03:43:21;96199.19;;;-2.92;67.77
12793;BME280;6460;42.684;23.260;2023-02-11T03:45:51;96202.66;;;-3.03;66.94
12793;BME280;6460;42.684;23.260;2023-02-11T03:48:24;96191.97;;;-2.85;66.64
12793;BME280;6460;42.684;23.260;2023-02-11T03:50:54;96201.03;;;-3.04;66.69
12793;BME280;6460;42.684;23.260;2023-02-11T03:53:22;96196.81;;;-3.05;67.01
12793;BME280;6460;42.684;23.260;2023-02-11T03:55:50;96201.28;;;-3.29;67.37
12793;BME280;6460;42.684;23.260;2023-02-11T03:58:20;96200.81;;;-3.03;67.05
12793;BME280;6460;42.684;23.260;2023-02-11T04:00:47;96195.09;;;-3.11;66.97
12793;BME280;6460;42.684;23.260;2023-02-11T04:03:14;96201.84;;;-3.15;67.75
12793;BME280;6460;42.684;23.260;2023-02-11T04:05:42;96196.94;;;-3.24;67.08
12793;BME280;6460;42.684;23.260;2023-02-11T04:08:10;96204.47;;;-3.04;67.48
12793;BME280;6460;42.684;23.260;2023-02-11T04:10:37;96206.84;;;-2.79;66.06
12793;BME280;6460;42.684;23.260;2023-02-11T04:13:05;96200.22;;;-2.93;66.44
12793;BME280;6460;42.684;23.260;2023-02-11T04:15:32;96197.34;;;-2.80;66.31
12793;BME280;6460;42.684;23.260;2023-02-11T04:17:59;96200.78;;;-2.80;66.08
12793;BME280;6460;42.684;23.260;2023-02-11T04:20:26;96202.53;;;-3.08;66.49
12793;BME280;6460;42.684;23.260;2023-02-11T04:22:53;96202.28;;;-2.95;66.96
12793;BME280;6460;42.684;23.260;2023-02-11T04:25:22;96201.13;;;-2.76;67.72
12793;BME280;6460;42.684;23.260;2023-02-11T04:27:50;96202.59;;;-2.69;66.59
12793;BME280;6460;42.684;23.260;2023-02-11T04:30:18;96197.69;;;-2.65;65.34
12793;BME280;6460;42.684;23.260;2023-02-11T04:32:45;96190.66;;;-3.23;64.24
12793;BME280;6460;42.684;23.260;2023-02-11T04:35:12;96193.06;;;-3.33;65.60
12793;BME280;6460;42.684;23.260;2023-02-11T04:37:39;96191.44;;;-3.34;64.85
12793;BME280;6460;42.684;23.260;2023-02-11T04:40:08;96195.22;;;-3.30;64.49
12793;BME280;6460;42.684;23.260;2023-02-11T04:42:36;96187.56;;;-3.19;63.60
12793;BME280;6460;42.684;23.260;2023-02-11T04:45:04;96187.91;;;-3.28;64.90
12793;BME280;6460;42.684;23.260;2023-02-11T04:47:32;96181.84;;;-3.40;66.06
12793;BME280;6460;42.684;23.260;2023-02-11T04:49:59;96192.59;;;-3.53;66.98
12793;BME280;6460;42.684;23.260;2023-02-11T04:52:26;96189.03;;;-3.47;67.37
12793;BME280;6460;42.684;23.260;2023-02-11T04:54:53;96183.34;;;-3.21;66.31
12793;BME280;6460;42.684;23.260;2023-02-11T04:57:21;96185.59;;;-3.59;65.85
12793;BME280;6460;42.684;23.260;2023-02-11T04:59:49;96189.16;;;-3.30;65.87
12793;BME280;6460;42.684;23.260;2023-02-11T05:02:16;96181.28;;;-3.42;65.80
12793;BME280;6460;42.684;23.260;2023-02-11T05:04:43;96175.69;;;-3.34;66.12
12793;BME280;6460;42.684;23.260;2023-02-11T05:07:10;96185.16;;;-3.33;66.19
12793;BME280;6460;42.684;23.260;2023-02-11T05:09:38;96173.63;;;-3.43;66.23
12793;BME280;6460;42.684;23.260;2023-02-11T05:12:05;96173.63;;;-3.55;66.34
12793;BME280;6460;42.684;23.260;2023-02-11T05:14:33;96172.13;;;-3.62;65.56
12793;BME280;6460;42.684;23.260;2023-02-11T05:17:01;96171.22;;;-3.45;65.58
12793;BME280;6460;42.684;23.260;2023-02-11T05:19:28;96173.03;;;-3.68;66.49
12793;BME280;6460;42.684;23.260;2023-02-11T05:21:57;96170.06;;;-3.72;67.25
12793;BME280;6460;42.684;23.260;2023-02-11T05:24:24;96177.28;;;-3.67;67.50
12793;BME280;6460;42.684;23.260;2023-02-11T05:26:51;96177.63;;;-3.64;68.53
12793;BME280;6460;42.684;23.260;2023-02-11T05:29:18;96175.63;;;-3.92;69.30
12793;BME280;6460;42.684;23.260;2023-02-11T05:31:45;96170.38;;;-3.92;69.60
12793;BME280;6460;42.684;23.260;2023-02-11T05:34:14;96181.31;;;-4.06;70.70
12793;BME280;6460;42.684;23.260;2023-02-11T05:36:41;96169.28;;;-3.61;69.97
12793;BME280;6460;42.684;23.260;2023-02-11T05:39:08;96169.25;;;-3.72;70.01
12793;BME280;6460;42.684;23.260;2023-02-11T05:41:35;96175.88;;;-3.70;70.28
12793;BME280;6460;42.684;23.260;2023-02-11T05:44:03;96174.34;;;-3.89;70.00
12793;BME280;6460;42.684;23.260;2023-02-11T05:46:30;96172.56;;;-3.77;69.78
12793;BME280;6460;42.684;23.260;2023-02-11T05:48:57;96165.00;;;-3.85;69.20
12793;BME280;6460;42.684;23.260;2023-02-11T05:51:26;96174.06;;;-3.46;68.70
12793;BME280;6460;42.684;23.260;2023-02-11T05:53:53;96177.50;;;-3.23;69.06
12793;BME280;6460;42.684;23.260;2023-02-11T05:56:21;96176.22;;;-3.08;68.95
12793;BME280;6460;42.684;23.260;2023-02-11T05:58:48;96181.38;;;-3.13;68.22
12793;BME280;6460;42.684;23.260;2023-02-11T06:01:15;96181.34;;;-2.90;68.81
12793;BME280;6460;42.684;23.260;2023-02-11T06:03:42;96178.41;;;-3.05;68.44
12793;BME280;6460;42.684;23.260;2023-02-11T06:06:09;96185.56;;;-2.89;66.76
12793;BME280;6460;42.684;23.260;2023-02-11T06:08:38;96180.91;;;-2.99;67.43
12793;BME280;6460;42.684;23.260;2023-02-11T06:11:06;96184.03;;;-3.13;68.31
12793;BME280;6460;42.684;23.260;2023-02-11T06:13:33;96193.59;;;-2.84;66.90
12793;BME280;6460;42.684;23.260;2023-02-11T06:16:01;96182.16;;;-2.78;66.53
12793;BME280;6460;42.684;23.260;2023-02-11T06:18:29;96181.94;;;-2.88;66.34
12793;BME280;6460;42.684;23.260;2023-02-11T06:20:58;96183.94;;;-2.67;66.17
12793;BME280;6460;42.684;23.260;2023-02-11T06:23:25;96188.34;;;-2.84;66.55
12793;BME280;6460;42.684;23.260;2023-02-11T06:25:54;96189.69;;;-2.93;67.30
12793;BME280;6460;42.684;23.260;2023-02-11T06:28:21;96193.25;;;-2.88;67.27
12793;BME280;6460;42.684;23.260;2023-02-11T06:30:48;96185.56;;;-2.89;67.60
12793;BME280;6460;42.684;23.260;2023-02-11T06:33:15;96186.47;;;-2.72;69.13
12793;BME280;6460;42.684;23.260;2023-02-11T06:35:42;96186.72;;;-2.85;68.07
12793;BME280;6460;42.684;23.260;2023-02-11T06:38:09;96188.19;;;-2.38;66.42
12793;BME280;6460;42.684;23.260;2023-02-11T06:40:36;96195.91;;;-2.48;66.51
12793;BME280;6460;42.684;23.260;2023-02-11T06:43:05;96186.38;;;-2.49;66.74
12793;BME280;6460;42.684;23.260;2023-02-11T06:45:32;96199.59;;;-2.60;67.08
12793;BME280;6460;42.684;23.260;2023-02-11T06:47:59;96199.78;;;-2.50;67.17
12793;BME280;6460;42.684;23.260;2023-02-11T06:50:26;96198.63;;;-2.43;67.58
12793;BME280;6460;42.684;23.260;2023-02-11T06:52:54;96200.81;;;-2.40;67.86
12793;BME280;6460;42.684;23.260;2023-02-11T06:55:21;96194.25;;;-2.37;67.89
12793;BME280;6460;42.684;23.260;2023-02-11T06:57:48;96206.22;;;-2.58;68.77
12793;BME280;6460;42.684;23.260;2023-02-11T07:00:17;96202.50;;;-2.34;68.41
12793;BME280;6460;42.684;23.260;2023-02-11T07:02:44;96204.59;;;-2.87;68.64
12793;BME280;6460;42.684;23.260;2023-02-11T07:05:11;96203.44;;;-2.51;69.99
12793;BME280;6460;42.684;23.260;2023-02-11T07:07:38;96194.06;;;-2.47;69.53
12793;BME280;6460;42.684;23.260;2023-02-11T07:10:06;96204.66;;;-2.31;69.46
12793;BME280;6460;42.684;23.260;2023-02-11T07:12:33;96198.56;;;-2.71;69.84
12793;BME280;6460;42.684;23.260;2023-02-11T07:15:00;96195.75;;;-2.81;70.86
12793;BME280;6460;42.684;23.260;2023-02-11T07:17:29;96200.56;;;-2.90;70.50
12793;BME280;6460;42.684;23.260;2023-02-11T07:19:55;96198.41;;;-3.04;70.87
12793;BME280;6460;42.684;23.260;2023-02-11T07:22:22;96180.63;;;-2.74;70.48
12793;BME280;6460;42.684;23.260;2023-02-11T07:24:49;96188.00;;;-2.48;70.18
12793;BME280;6460;42.684;23.260;2023-02-11T07:27:16;96192.63;;;-2.67;68.97
12793;BME280;6460;42.684;23.260;2023-02-11T07:29:43;96184.81;;;-2.50;69.03
12793;BME280;6460;42.684;23.260;2023-02-11T07:32:11;96182.59;;;-2.41;68.20
12793;BME280;6460;42.684;23.260;2023-02-11T07:34:40;96184.72;;;-2.27;68.25
12793;BME280;6460;42.684;23.260;2023-02-11T07:37:07;96164.97;;;-2.13;67.93
12793;BME280;6460;42.684;23.260;2023-02-11T07:39:35;96168.16;;;-2.10;67.29
12793;BME280;6460;42.684;23.260;2023-02-11T07:42:02;96174.41;;;-2.00;65.94
12793;BME280;6460;42.684;23.260;2023-02-11T07:44:30;96165.47;;;-1.99;66.05
12793;BME280;6460;42.684;23.260;2023-02-11T07:46:58;96162.69;;;-1.92;65.67
12793;BME280;6460;42.684;23.260;2023-02-11T07:49:25;96158.88;;;-2.13;66.43
12793;BME280;6460;42.684;23.260;2023-02-11T07:51:54;96160.91;;;-2.03;67.34
12793;BME280;6460;42.684;23.260;2023-02-11T07:54:21;96162.63;;;-1.64;65.89
12793;BME280;6460;42.684;23.260;2023-02-11T07:56:48;96156.38;;;-1.58;64.89
12793;BME280;6460;42.684;23.260;2023-02-11T07:59:15;96165.63;;;-1.72;64.77
12793;BME280;6460;42.684;23.260;2023-02-11T08:01:42;96156.38;;;-1.58;64.18
12793;BME280;6460;42.684;23.260;2023-02-11T08:04:10;96163.00;;;-1.39;63.95
12793;BME280;6460;42.684;23.260;2023-02-11T08:06:41;96155.59;;;-1.42;64.11
12793;BME280;6460;42.684;23.260;2023-02-11T08:09:13;96144.34;;;-1.54;64.94
12793;BME280;6460;42.684;23.260;2023-02-11T08:11:40;96147.44;;;-1.57;66.47
12793;BME280;6460;42.684;23.260;2023-02-11T08:14:08;96142.78;;;-1.50;67.67
12793;BME280;6460;42.684;23.260;2023-02-11T08:16:36;96145.81;;;-1.25;67.19
12793;BME280;6460;42.684;23.260;2023-02-11T08:19:05;96141.19;;;-0.96;66.86
12793;BME280;6460;42.684;23.260;2023-02-11T08:21:33;96150.28;;;-1.09;67.74
12793;BME280;6460;42.684;23.260;2023-02-11T08:24:01;96151.34;;;-1.04;68.26
12793;BME280;6460;42.684;23.260;2023-02-11T08:26:31;96151.88;;;-1.24;68.82
12793;BME280;6460;42.684;23.260;2023-02-11T08:29:01;96140.66;;;-1.15;68.23
12793;BME280;6460;42.684;23.260;2023-02-11T08:31:32;96148.19;;;-0.85;67.93
12793;BME280;6460;42.684;23.260;2023-02-11T08:33:59;96151.28;;;-0.71;67.69
12793;BME280;6460;42.684;23.260;2023-02-11T08:36:28;96149.66;;;-0.72;67.01
12793;BME280;6460;42.684;23.260;2023-02-11T08:38:56;96144.47;;;-0.67;67.41
12793;BME280;6460;42.684;23.260;2023-02-11T08:41:25;96147.88;;;-0.67;66.39
12793;BME280;6460;42.684;23.260;2023-02-11T08:43:54;96143.72;;;-0.84;65.51
12793;BME280;6460;42.684;23.260;2023-02-11T08:46:22;96148.94;;;-0.89;65.33
12793;BME280;6460;42.684;23.260;2023-02-11T08:48:49;96143.78;;;-0.58;66.06
12793;BME280;6460;42.684;23.260;2023-02-11T08:51:18;96149.88;;;-0.30;64.18
12793;BME280;6460;42.684;23.260;2023-02-11T08:53:46;96143.31;;;-0.28;63.33
12793;BME280;6460;42.684;23.260;2023-02-11T08:56:14;96158.31;;;-0.33;62.08
12793;BME280;6460;42.684;23.260;2023-02-11T08:58:41;96149.06;;;-0.58;62.65
12793;BME280;6460;42.684;23.260;2023-02-11T09:01:11;96164.66;;;-0.56;62.56
12793;BME280;6460;42.684;23.260;2023-02-11T09:03:38;96149.16;;;-0.26;62.61
12793;BME280;6460;42.684;23.260;2023-02-11T09:06:07;96150.41;;;-0.28;61.38
12793;BME280;6460;42.684;23.260;2023-02-11T09:08:35;96139.66;;;0.05;61.01
12793;BME280;6460;42.684;23.260;2023-02-11T09:11:02;96136.41;;;-0.02;62.00
12793;BME280;6460;42.684;23.260;2023-02-11T09:13:30;96136.84;;;0.17;61.30
12793;BME280;6460;42.684;23.260;2023-02-11T09:15:57;96141.44;;;0.26;60.39
12793;BME280;6460;42.684;23.260;2023-02-11T09:18:26;96127.47;;;0.31;59.34
12793;BME280;6460;42.684;23.260;2023-02-11T09:20:57;96133.25;;;0.28;59.51
12793;BME280;6460;42.684;23.260;2023-02-11T09:23:27;96132.88;;;0.14;58.82
12793;BME280;6460;42.684;23.260;2023-02-11T09:25:54;96132.03;;;0.09;59.08
12793;BME280;6460;42.684;23.260;2023-02-11T09:28:21;96121.50;;;0.14;59.13
12793;BME280;6460;42.684;23.260;2023-02-11T09:30:49;96123.22;;;0.30;59.98
12793;BME280;6460;42.684;23.260;2023-02-11T09:33:16;96139.13;;;0.35;58.00
12793;BME280;6460;42.684;23.260;2023-02-11T09:35:44;96130.53;;;0.54;57.76
12793;BME280;6460;42.684;23.260;2023-02-11T09:38:11;96121.25;;;0.47;57.09
12793;BME280;6460;42.684;23.260;2023-02-11T09:40:41;96126.53;;;0.47;56.72
12793;BME280;6460;42.684;23.260;2023-02-11T09:43:11;96124.97;;;0.51;56.86
12793;BME280;6460;42.684;23.260;2023-02-11T09:45:40;96103.56;;;0.58;57.41
12793;BME280;6460;42.684;23.260;2023-02-11T09:48:13;96106.41;;;0.88;58.08
12793;BME280;6460;42.684;23.260;2023-02-11T09:50:45;96100.66;;;1.01;55.05
12793;BME280;6460;42.684;23.260;2023-02-11T09:53:17;96103.88;;;1.13;53.52
12793;BME280;6460;42.684;23.260;2023-02-11T09:55:47;96087.06;;;1.39;53.04
12793;BME280;6460;42.684;23.260;2023-02-11T09:58:24;96085.47;;;1.48;53.45
12793;BME280;6460;42.684;23.260;2023-02-11T10:00:57;96088.19;;;1.69;53.25
12793;BME280;6460;42.684;23.260;2023-02-11T10:03:54;96078.94;;;1.86;50.22
12793;BME280;6460;42.684;23.260;2023-02-11T10:06:35;96066.22;;;1.98;47.03
12793;BME280;6460;42.684;23.260;2023-02-11T10:09:14;96056.16;;;2.00;47.03
12793;BME280;6460;42.684;23.260;2023-02-11T10:11:51;96059.88;;;2.09;46.14
12793;BME280;6460;42.684;23.260;2023-02-11T10:14:28;96057.72;;;2.01;48.03
12793;BME280;6460;42.684;23.260;2023-02-11T10:17:09;96049.75;;;2.57;48.04
12793;BME280;6460;42.684;23.260;2023-02-11T10:19:51;96035.41;;;2.58;46.65
12793;BME280;6460;42.684;23.260;2023-02-11T10:22:27;96024.22;;;2.76;44.82
12793;BME280;6460;42.684;23.260;2023-02-11T10:24:58;96020.53;;;2.67;45.49
12793;BME280;6460;42.684;23.260;2023-02-11T10:27:29;96013.38;;;2.67;46.06
12793;BME280;6460;42.684;23.260;2023-02-11T10:40:21;95985.91;;;3.46;40.90
12793;BME280;6460;42.684;23.260;2023-02-11T10:45:38;95970.22;;;3.45;43.50
12793;BME280;6460;42.684;23.260;2023-02-11T10:48:36;95967.63;;;3.73;42.36
12793;BME280;6460;42.684;23.260;2023-02-11T10:51:12;95959.28;;;3.51;42.72
12793;BME280;6460;42.684;23.260;2023-02-11T10:53:41;95959.53;;;3.89;42.18
12793;BME280;6460;42.684;23.260;2023-02-11T10:56:13;95946.56;;;3.82;43.01
12793;BME280;6460;42.684;23.260;2023-02-11T11:01:20;95942.22;;;3.91;43.43
12793;BME280;6460;42.684;23.260;2023-02-11T11:03:49;95932.09;;;3.93;42.54
12793;BME280;6460;42.684;23.260;2023-02-11T11:06:28;95935.03;;;3.63;42.44
12793;BME280;6460;42.684;23.260;2023-02-11T11:11:50;95934.47;;;4.23;40.23
12793;BME280;6460;42.684;23.260;2023-02-11T11:14:18;95928.78;;;4.06;41.49
12793;BME280;6460;42.684;23.260;2023-02-11T11:16:52;95922.75;;;4.48;40.00
12793;BME280;6460;42.684;23.260;2023-02-11T11:19:21;95923.28;;;4.26;40.97
12793;BME280;6460;42.684;23.260;2023-02-11T11:21:50;95914.78;;;4.72;39.87
12793;BME280;6460;42.684;23.260;2023-02-11T11:24:20;95908.19;;;4.41;40.46
12793;BME280;6460;42.684;23.260;2023-02-11T11:26:52;95917.47;;;4.91;39.44
12793;BME280;6460;42.684;23.260;2023-02-11T11:29:25;95907.72;;;4.81;39.79
12793;BME280;6460;42.684;23.260;2023-02-11T11:31:56;95924.28;;;4.78;39.44
12793;BME280;6460;42.684;23.260;2023-02-11T11:34:27;95899.47;;;5.20;38.75
12793;BME280;6460;42.684;23.260;2023-02-11T11:36:57;95892.25;;;5.58;37.83
12793;BME280;6460;42.684;23.260;2023-02-11T11:39:27;95896.16;;;5.79;38.70
12793;BME280;6460;42.684;23.260;2023-02-11T11:41:58;95891.19;;;5.72;37.57
12793;BME280;6460;42.684;23.260;2023-02-11T11:44:29;95881.91;;;6.16;36.65
12793;BME280;6460;42.684;23.260;2023-02-11T11:47:18;95913.78;;;5.94;36.82
12793;BME280;6460;42.684;23.260;2023-02-11T11:49:54;95890.91;;;5.74;36.08
12793;BME280;6460;42.684;23.260;2023-02-11T11:52:34;95891.88;;;5.27;36.87
12793;BME280;6460;42.684;23.260;2023-02-11T12:13:11;95854.09;;;4.88;37.63
12793;BME280;6460;42.684;23.260;2023-02-11T12:15:48;95851.69;;;5.42;35.43
12793;BME280;6460;42.684;23.260;2023-02-11T12:18:32;95839.72;;;5.72;34.28
12793;BME280;6460;42.684;23.260;2023-02-11T12:29:01;95827.13;;;5.59;34.14
12793;BME280;6460;42.684;23.260;2023-02-11T12:31:45;95811.38;;;5.76;34.58
12793;BME280;6460;42.684;23.260;2023-02-11T12:34:46;95815.13;;;5.61;35.71
12793;BME280;6460;42.684;23.260;2023-02-11T12:37:25;95808.81;;;5.71;36.19
12793;BME280;6460;42.684;23.260;2023-02-11T12:40:10;95812.59;;;5.97;35.44
12793;BME280;6460;42.684;23.260;2023-02-11T12:43:01;95818.47;;;5.99;34.90
12793;BME280;6460;42.684;23.260;2023-02-11T12:48:55;95805.63;;;6.28;33.90
12793;BME280;6460;42.684;23.260;2023-02-11T12:51:45;95802.03;;;6.33;34.57
12793;BME280;6460;42.684;23.260;2023-02-11T12:54:23;95793.94;;;6.38;33.95
12793;BME280;6460;42.684;23.260;2023-02-11T12:56:57;95795.22;;;6.13;34.89
12793;BME280;6460;42.684;23.260;2023-02-11T12:59:43;95794.50;;;6.49;34.75
12793;BME280;6460;42.684;23.260;2023-02-11T13:02:23;95782.31;;;6.70;32.94
12793;BME280;6460;42.684;23.260;2023-02-11T13:04:56;95794.53;;;6.08;33.29
12793;BME280;6460;42.684;23.260;2023-02-11T13:07:27;95789.66;;;6.51;32.86
12793;BME280;6460;42.684;23.260;2023-02-11T13:10:00;95786.84;;;6.69;32.87
12793;BME280;6460;42.684;23.260;2023-02-11T13:12:33;95780.00;;;6.77;32.25
12793;BME280;6460;42.684;23.260;2023-02-11T13:15:19;95781.13;;;6.98;32.26
12793;BME280;6460;42.684;23.260;2023-02-11T13:17:55;95774.75;;;6.85;32.25
12793;BME280;6460;42.684;23.260;2023-02-11T13:20:31;95775.00;;;6.62;32.88
12793;BME280;6460;42.684;23.260;2023-02-11T13:23:07;95776.72;;;6.44;32.36
12793;BME280;6460;42.684;23.260;2023-02-11T13:25:42;95778.19;;;6.36;32.63
12793;BME280;6460;42.684;23.260;2023-02-11T13:28:35;95775.84;;;6.08;32.19
12793;BME280;6460;42.684;23.260;2023-02-11T13:31:06;95782.91;;;5.71;32.80
12793;BME280;6460;42.684;23.260;2023-02-11T13:33:36;95780.78;;;6.14;32.61
12793;BME280;6460;42.684;23.260;2023-02-11T13:36:29;95778.59;;;6.16;31.89
12793;BME280;6460;42.684;23.260;2023-02-11T13:39:19;95781.59;;;6.15;31.69
12793;BME280;6460;42.684;23.260;2023-02-11T13:41:47;95767.44;;;6.14;31.49
12793;BME280;6460;42.684;23.260;2023-02-11T13:44:26;95751.78;;;6.49;31.32
12793;BME280;6460;42.684;23.260;2023-02-11T13:46:57;95760.94;;;6.70;31.26
12793;BME280;6460;42.684;23.260;2023-02-11T13:49:30;95756.25;;;6.75;30.83
12793;BME280;6460;42.684;23.260;2023-02-11T13:51:59;95756.34;;;6.70;30.94
12793;BME280;6460;42.684;23.260;2023-02-11T13:54:33;95762.16;;;6.86;30.65
12793;BME280;6460;42.684;23.260;2023-02-11T13:57:24;95748.38;;;6.92;29.88
12793;BME280;6460;42.684;23.260;2023-02-11T13:59:53;95741.03;;;7.20;30.06
12793;BME280;6460;42.684;23.260;2023-02-11T14:02:27;95743.38;;;7.00;30.63
12793;BME280;6460;42.684;23.260;2023-02-11T14:05:27;95739.78;;;7.49;30.41
12793;BME280;6460;42.684;23.260;2023-02-11T14:08:27;95741.88;;;7.60;30.25
12793;BME280;6460;42.684;23.260;2023-02-11T14:11:46;95734.16;;;7.98;30.14
12793;BME280;6460;42.684;23.260;2023-02-11T14:14:17;95737.31;;;7.61;30.56